Main page
METAR-TAF:

METAR-TAF

Airports :

Sabadell Airport

Sabadell, Spain

latitude: 41-31N, longitude: 002-06E, elevation: 250 m

Current weather observation

The report was made 32 minutes ago, at 21:00 UTC
Wind 5 kt from the West/Northwest
Temperature 6°C
Humidity 87%
Pressure 1022 hPa
Visibility 10 km or more

METAR: LELL 102100Z AUTO 30005KT 9999 NCD 06/04 Q1022

Time: 22:32 (21:32 UTC)

Forecast

The report was made 7 hours and 32 minutes ago, at 14:00 UTC
Forecast valid from 10 at 15 UTC to 11 at 15 UTC
Wind 4 kt from variable directions
Visibility 10 km or more
no clouds below 1500 m and no cumulonimbus

TAF: LELL 101400Z 1015/1115 VRB04KT CAVOK TX15/1113Z TN03/1106Z

Weather observations and forecasts of more than 4000 airports (METAR and TAF reports).

The available stations are represented by yellow and red dots on the map.

Hover mouse over dot to see the name of the station.

Then click to see weather observations and forecasts.

To change the map : click on the green buttons with a black cross to zoom in, on the green button with a dash to zoom out, or on the green arrows for adjacent maps.


METAR-TAF: